createdAt,value
2022-11-26T00:00:00.450Z,100665.16
2022-11-26T00:02:44.417Z,100681.16
2022-11-26T00:05:32.521Z,100689.31
2022-11-26T00:08:21.993Z,100679.97
2022-11-26T00:11:12.691Z,100684.94
2022-11-26T00:13:56.478Z,100692.88
2022-11-26T00:16:40.394Z,100687.19
2022-11-26T00:19:24.161Z,100696.56
2022-11-26T00:22:10.798Z,100699.03
2022-11-26T00:24:57.301Z,100702.25
2022-11-26T00:27:41.014Z,100707.25
2022-11-26T00:30:27.065Z,100703.72
2022-11-26T00:33:10.856Z,100707.16
2022-11-26T00:35:58.563Z,100711.34
2022-11-26T00:38:42.975Z,100717.06
2022-11-26T00:41:32.113Z,100715.94
2022-11-26T00:44:19.459Z,100732.03
2022-11-26T00:47:03.291Z,100729.63
2022-11-26T00:49:46.977Z,100736.06
2022-11-26T00:52:34.223Z,100739.88
2022-11-26T00:55:28.780Z,100737.84
2022-11-26T00:58:25.896Z,100745.16
2022-11-26T01:01:12.666Z,100739.03
2022-11-26T01:03:58.454Z,100751.47
2022-11-26T01:06:44.325Z,100752.66
2022-11-26T01:09:28.080Z,100734.28
2022-11-26T01:12:15.164Z,100751.47
2022-11-26T01:15:00.361Z,100742.13
2022-11-26T01:17:44.157Z,100733.66
2022-11-26T01:20:30.095Z,100735.63
2022-11-26T01:23:15.346Z,100746.75
2022-11-26T01:26:02.470Z,100694.09
2022-11-26T01:28:50.049Z,100690.75
2022-11-26T01:31:35.302Z,100730.00
2022-11-26T01:34:19.105Z,100738.41
2022-11-26T01:37:02.903Z,100744.56
2022-11-26T01:39:46.606Z,100747.88
2022-11-26T01:42:42.383Z,100763.19
2022-11-26T01:45:26.837Z,100732.88
2022-11-26T01:48:24.709Z,100760.59
2022-11-26T01:51:10.508Z,100745.97
2022-11-26T01:53:56.460Z,100766.72
2022-11-26T01:56:44.723Z,100763.44
2022-11-26T01:59:30.670Z,100764.47
2022-11-26T02:02:14.798Z,100754.66
2022-11-26T02:05:06.975Z,100752.47
2022-11-26T02:07:51.861Z,100759.66
2022-11-26T02:10:35.872Z,100765.94
2022-11-26T02:13:19.786Z,100779.97
2022-11-26T02:16:12.588Z,100776.91
2022-11-26T02:19:18.553Z,100774.91
2022-11-26T02:22:10.330Z,100775.53
2022-11-26T02:25:02.591Z,100778.22
2022-11-26T02:28:18.064Z,100800.91
2022-11-26T02:31:08.439Z,100805.56
2022-11-26T02:33:58.411Z,100797.88
2022-11-26T02:36:48.407Z,100792.19
2022-11-26T02:39:32.437Z,100753.81
2022-11-26T02:42:28.243Z,100802.09
2022-11-26T02:45:15.619Z,100782.88
2022-11-26T02:48:04.596Z,100794.59
2022-11-26T02:50:51.578Z,100798.97
2022-11-26T02:53:36.973Z,100815.16
2022-11-26T02:56:23.730Z,100812.25
2022-11-26T02:59:08.207Z,100786.22
2022-11-26T03:01:57.203Z,100805.09
2022-11-26T03:04:47.175Z,100807.13
2022-11-26T03:07:33.630Z,100820.16
2022-11-26T03:10:20.256Z,100798.59
2022-11-26T03:13:04.078Z,100825.84
2022-11-26T03:15:47.794Z,100833.34
2022-11-26T03:18:31.616Z,100843.75
2022-11-26T03:21:16.694Z,100842.00
2022-11-26T03:24:00.492Z,100847.00
2022-11-26T03:26:44.455Z,100812.31
2022-11-26T03:29:28.458Z,100823.47
2022-11-26T03:32:12.445Z,100853.00
2022-11-26T03:34:56.153Z,100840.31
2022-11-26T03:37:41.255Z,100829.41
2022-11-26T03:40:24.969Z,100815.88
2022-11-26T03:43:08.704Z,100833.41
2022-11-26T03:45:52.683Z,100838.88
2022-11-26T03:48:36.521Z,100848.38
2022-11-26T03:51:20.231Z,100845.06
2022-11-26T03:54:05.547Z,100835.78
2022-11-26T03:56:49.209Z,100841.38
2022-11-26T03:59:33.228Z,100847.44
2022-11-26T04:02:17.420Z,100849.13
2022-11-26T04:05:01.128Z,100843.66
2022-11-26T04:07:47.001Z,100847.31
2022-11-26T04:10:32.353Z,100857.38
2022-11-26T04:13:16.106Z,100858.47
2022-11-26T04:16:00.041Z,100861.00
2022-11-26T04:18:44.069Z,100865.00
2022-11-26T04:21:27.848Z,100867.94
2022-11-26T04:24:11.615Z,100858.13
2022-11-26T04:26:56.715Z,100855.97
2022-11-26T04:29:40.904Z,100863.47
2022-11-26T04:32:25.570Z,100870.41
2022-11-26T04:35:10.202Z,100858.53
2022-11-26T04:37:54.046Z,100864.84
2022-11-26T04:40:37.967Z,100857.16
2022-11-26T04:43:23.079Z,100865.47
2022-11-26T04:46:07.201Z,100890.31
2022-11-26T04:48:50.951Z,100894.22
2022-11-26T04:51:34.706Z,100880.19
2022-11-26T04:54:18.453Z,100907.34
2022-11-26T04:57:02.317Z,100899.63
2022-11-26T04:59:47.452Z,100918.19
2022-11-26T05:02:31.195Z,100921.66
2022-11-26T05:05:15.374Z,100934.38
2022-11-26T05:08:00.354Z,100924.72
2022-11-26T05:10:44.093Z,100920.78
2022-11-26T05:13:27.948Z,100929.28
2022-11-26T05:16:13.278Z,100934.22
2022-11-26T05:18:57.099Z,100920.41
2022-11-26T05:21:40.897Z,100937.81
2022-11-26T05:24:24.882Z,100946.34
2022-11-26T05:27:08.918Z,100940.88
2022-11-26T05:29:52.633Z,100941.63
2022-11-26T05:32:37.749Z,100939.72
2022-11-26T05:35:21.869Z,100928.69
2022-11-26T05:38:05.978Z,100938.25
2022-11-26T05:40:49.791Z,100926.34
2022-11-26T05:43:33.510Z,100940.34
2022-11-26T05:46:19.265Z,100940.47
2022-11-26T05:49:04.467Z,100918.66
2022-11-26T05:51:48.252Z,100954.56
2022-11-26T05:54:32.073Z,100954.16
2022-11-26T05:57:15.819Z,100959.28
2022-11-26T05:59:59.635Z,100964.22
2022-11-26T06:02:43.920Z,100969.84
2022-11-26T06:05:29.337Z,100949.59
2022-11-26T06:08:13.361Z,100959.97
2022-11-26T06:10:57.419Z,100938.25
2022-11-26T06:13:41.528Z,100935.19
2022-11-26T06:16:25.534Z,100980.09
2022-11-26T06:19:09.540Z,100942.38
2022-11-26T06:21:54.674Z,100981.44
2022-11-26T06:24:38.847Z,100955.44
2022-11-26T06:27:22.948Z,100992.22
2022-11-26T06:30:09.483Z,100949.75
2022-11-26T06:32:53.344Z,100960.84
2022-11-26T06:35:37.332Z,100982.78
2022-11-26T06:38:22.711Z,100992.69
2022-11-26T06:41:08.543Z,101003.00
2022-11-26T06:43:52.421Z,100963.00
2022-11-26T06:46:36.871Z,101005.03
2022-11-26T06:49:20.684Z,101008.97
2022-11-26T06:52:04.878Z,101016.44
2022-11-26T06:54:51.318Z,100973.38
2022-11-26T06:57:35.262Z,100968.13
2022-11-26T07:00:19.690Z,100989.34
2022-11-26T07:03:03.441Z,101015.69
2022-11-26T07:05:47.253Z,101013.31
2022-11-26T07:08:31.144Z,101023.31
2022-11-26T07:11:16.314Z,101017.78
2022-11-26T07:14:01.554Z,101024.34
2022-11-26T07:16:45.471Z,101033.03
2022-11-26T07:19:29.332Z,101023.09
2022-11-26T07:22:13.181Z,101005.19
2022-11-26T07:24:57.031Z,101019.66
2022-11-26T07:27:42.567Z,101016.13
2022-11-26T07:30:26.628Z,100978.00
2022-11-26T07:33:10.315Z,101033.63
2022-11-26T07:35:54.098Z,101031.03
2022-11-26T07:38:38.160Z,101032.38
2022-11-26T07:41:21.954Z,101012.69
2022-11-26T07:44:07.305Z,101033.81
2022-11-26T07:46:51.215Z,101025.44
2022-11-26T07:49:35.003Z,101013.09
2022-11-26T07:52:18.864Z,101001.13
2022-11-26T07:55:04.207Z,101040.94
2022-11-26T07:57:49.662Z,101045.22
2022-11-26T08:00:34.692Z,101038.59
2022-11-26T08:03:18.502Z,101042.75
2022-11-26T08:06:02.238Z,101048.94
2022-11-26T08:08:46.413Z,101033.41
2022-11-26T08:11:31.787Z,101041.53
2022-11-26T08:14:15.619Z,101035.41
2022-11-26T08:17:00.648Z,101040.78
2022-11-26T08:19:44.370Z,101043.25
2022-11-26T08:22:30.390Z,101050.00
2022-11-26T08:25:14.309Z,101049.44
2022-11-26T08:27:58.078Z,101054.41
2022-11-26T08:30:41.781Z,101058.00
2022-11-26T08:33:26.918Z,101058.31
2022-11-26T08:36:11.610Z,101050.09
2022-11-26T08:38:55.361Z,101057.84
2022-11-26T08:41:39.089Z,101044.94
2022-11-26T08:44:22.998Z,101062.38
2022-11-26T08:47:06.839Z,101069.84
2022-11-26T08:49:51.873Z,101076.69
2022-11-26T08:52:35.632Z,101066.88
2022-11-26T08:55:23.747Z,101062.41
2022-11-26T08:58:08.111Z,101055.81
2022-11-26T09:00:51.833Z,101063.56
2022-11-26T09:03:35.674Z,101061.63
2022-11-26T09:06:22.184Z,101053.91
2022-11-26T09:09:17.667Z,101024.47
2022-11-26T09:12:03.327Z,101055.28
2022-11-26T09:14:47.106Z,101052.28
2022-11-26T09:17:30.856Z,101052.16
2022-11-26T09:20:15.128Z,101031.47
2022-11-26T09:23:00.330Z,101019.72
2022-11-26T09:25:44.087Z,101049.59
2022-11-26T09:28:29.080Z,101038.38
2022-11-26T09:31:12.902Z,101042.63
2022-11-26T09:33:57.770Z,101041.22
2022-11-26T09:36:41.965Z,101029.78
2022-11-26T09:39:28.646Z,101036.75
2022-11-26T09:42:23.100Z,101031.09
2022-11-26T09:45:19.424Z,101027.72
2022-11-26T09:48:04.947Z,101024.91
2022-11-26T09:50:50.633Z,100977.28
2022-11-26T09:53:37.845Z,101027.69
2022-11-26T09:56:27.410Z,101029.34
2022-11-26T09:59:14.570Z,101026.88
2022-11-26T10:01:58.369Z,101016.53
2022-11-26T10:04:42.574Z,101022.41
2022-11-26T10:07:48.216Z,101016.84
2022-11-26T10:10:39.527Z,101012.28
2022-11-26T10:13:34.200Z,101009.34
2022-11-26T10:16:27.996Z,101015.31
2022-11-26T10:19:19.882Z,100986.94
2022-11-26T10:22:12.721Z,100985.16
2022-11-26T10:24:58.398Z,101004.69
2022-11-26T10:27:42.515Z,101011.56
2022-11-26T10:30:29.505Z,100998.34
2022-11-26T10:33:19.320Z,101007.56
2022-11-26T10:36:07.774Z,100998.03
2022-11-26T10:38:51.573Z,101005.47
2022-11-26T10:41:38.174Z,100998.31
2022-11-26T10:44:33.772Z,100977.00
2022-11-26T10:47:27.894Z,101011.97
2022-11-26T10:53:27.215Z,101013.09
2022-11-26T10:56:19.869Z,101005.97
2022-11-26T10:59:06.894Z,101015.75
2022-11-26T11:01:52.903Z,101016.22
2022-11-26T11:04:46.395Z,101017.00
2022-11-26T11:07:37.102Z,101033.78
2022-11-26T11:10:24.241Z,101035.44
2022-11-26T11:13:13.645Z,101035.22
2022-11-26T11:16:02.828Z,101036.91
2022-11-26T11:18:52.412Z,101026.34
2022-11-26T11:21:43.824Z,101034.91
2022-11-26T11:24:30.820Z,101034.75
2022-11-26T11:27:25.282Z,101035.47
2022-11-26T11:30:25.346Z,101021.16
2022-11-26T11:33:19.172Z,101011.59
2022-11-26T11:36:06.190Z,101011.59
2022-11-26T11:38:53.324Z,101017.78
2022-11-26T11:41:43.454Z,101033.69
2022-11-26T11:44:38.583Z,101019.56
2022-11-26T11:47:37.317Z,101004.47
2022-11-26T11:50:25.335Z,101017.13
2022-11-26T11:53:35.378Z,101017.59
2022-11-26T11:56:25.894Z,101005.50
2022-11-26T11:59:37.335Z,101009.28
2022-11-26T12:02:39.201Z,101014.69
2022-11-26T12:06:07.200Z,101014.84
2022-11-26T12:09:04.129Z,101017.50
2022-11-26T12:11:57.479Z,101018.38
2022-11-26T12:14:47.445Z,100983.22
2022-11-26T12:17:36.853Z,101008.38
2022-11-26T12:20:27.221Z,101017.03
2022-11-26T12:23:25.575Z,101027.59
2022-11-26T12:26:16.488Z,101025.13
2022-11-26T12:29:05.382Z,101022.66
2022-11-26T12:31:53.987Z,101025.38
2022-11-26T12:34:45.069Z,100982.13
2022-11-26T12:37:32.823Z,101023.75
2022-11-26T12:40:32.658Z,101031.31
2022-11-26T12:43:21.332Z,100991.34
2022-11-26T12:46:11.104Z,101020.63
2022-11-26T12:49:02.528Z,101031.38
2022-11-26T12:51:51.275Z,101022.78
2022-11-26T12:54:41.478Z,101025.59
2022-11-26T12:57:29.396Z,101034.94
2022-11-26T13:00:19.976Z,101032.88
2022-11-26T13:03:17.037Z,101040.56
2022-11-26T13:06:05.208Z,101044.69
2022-11-26T13:08:57.711Z,101038.31
2022-11-26T13:11:47.362Z,101054.97
2022-11-26T13:14:42.187Z,101040.03
2022-11-26T13:17:32.441Z,101058.22
2022-11-26T13:20:38.004Z,101009.66
2022-11-26T13:23:35.850Z,101039.69
2022-11-26T13:26:33.919Z,101031.72
2022-11-26T13:29:32.467Z,101039.78
2022-11-26T13:33:02.085Z,101053.81
2022-11-26T13:36:13.298Z,101054.44
2022-11-26T13:39:23.189Z,101040.25
2022-11-26T13:42:22.056Z,101060.38
2022-11-26T13:45:53.477Z,101059.09
2022-11-26T13:48:48.574Z,101053.16
2022-11-26T13:51:40.935Z,101061.34
2022-11-26T13:54:30.131Z,101049.00
2022-11-26T13:57:17.676Z,101045.06
2022-11-26T14:00:05.080Z,101077.19
2022-11-26T14:02:51.153Z,101067.84
2022-11-26T14:06:09.912Z,101071.09
2022-11-26T14:08:55.575Z,101080.19
2022-11-26T14:12:00.463Z,101082.03
2022-11-26T14:14:46.136Z,101092.59
2022-11-26T14:17:35.099Z,101044.16
2022-11-26T14:20:19.248Z,101092.88
2022-11-26T14:23:43.689Z,101097.75
2022-11-26T14:26:34.444Z,101103.63
2022-11-26T14:29:19.315Z,101109.13
2022-11-26T14:32:03.887Z,101087.03
2022-11-26T14:34:53.081Z,101097.28
2022-11-26T14:37:36.971Z,101078.59
2022-11-26T14:40:26.923Z,101112.91
2022-11-26T14:43:16.797Z,101124.06
2022-11-26T14:46:06.553Z,101096.22
2022-11-26T14:48:51.182Z,101094.56
2022-11-26T14:51:36.013Z,101129.31
2022-11-26T14:54:26.659Z,101091.75
2022-11-26T14:57:17.246Z,101100.00
2022-11-26T15:00:06.550Z,101105.38
2022-11-26T15:02:50.688Z,101143.09
2022-11-26T15:05:42.070Z,101139.34
2022-11-26T15:08:28.893Z,101142.72
2022-11-26T15:11:15.089Z,101131.28
2022-11-26T15:14:02.503Z,101134.06
2022-11-26T15:16:54.428Z,101145.13
2022-11-26T15:19:39.500Z,101145.09
2022-11-26T15:22:29.724Z,101122.13
2022-11-26T15:25:18.605Z,101160.03
2022-11-26T15:28:04.261Z,101138.78
2022-11-26T15:30:56.105Z,101166.72
2022-11-26T15:33:42.416Z,101161.88
2022-11-26T15:36:26.284Z,101171.56
2022-11-26T15:39:26.178Z,101174.44
2022-11-26T15:42:27.299Z,101141.13
2022-11-26T15:45:16.769Z,101160.72
2022-11-26T15:48:00.716Z,101116.53
2022-11-26T15:50:48.203Z,101139.44
2022-11-26T15:53:36.376Z,101188.13
2022-11-26T15:56:21.844Z,101185.94
2022-11-26T15:59:14.716Z,101187.94
2022-11-26T16:02:12.265Z,101186.09
2022-11-26T16:04:57.140Z,101200.22
2022-11-26T16:07:58.213Z,101167.41
2022-11-26T16:10:42.303Z,101194.88
2022-11-26T16:13:28.774Z,101198.59
2022-11-26T16:16:18.437Z,101199.47
2022-11-26T16:19:04.439Z,101168.56
2022-11-26T16:21:50.194Z,101196.06
2022-11-26T16:24:39.062Z,101172.09
2022-11-26T16:27:27.308Z,101195.53
2022-11-26T16:30:15.896Z,101187.47
2022-11-26T16:32:59.667Z,101205.94
2022-11-26T16:35:45.807Z,101194.66
2022-11-26T16:38:30.586Z,101187.13
2022-11-26T16:41:17.546Z,101183.44
2022-11-26T16:44:01.429Z,101130.25
2022-11-26T16:46:46.015Z,101211.03
2022-11-26T16:49:30.419Z,101168.00
2022-11-26T16:52:17.334Z,101168.06
2022-11-26T16:55:01.327Z,101213.19
2022-11-26T16:57:49.911Z,101163.84
2022-11-26T17:00:36.004Z,101156.16
2022-11-26T17:03:22.775Z,101197.72
2022-11-26T17:06:13.805Z,101193.03
2022-11-26T17:08:58.450Z,101200.25
2022-11-26T17:11:42.200Z,101196.03
2022-11-26T17:14:27.370Z,101197.56
2022-11-26T17:17:13.418Z,101202.72
2022-11-26T17:19:57.880Z,101207.16
2022-11-26T17:22:41.652Z,101202.25
2022-11-26T17:25:25.416Z,101206.75
2022-11-26T17:28:12.397Z,101194.66
2022-11-26T17:30:57.626Z,101211.41
2022-11-26T17:33:41.522Z,101199.09
2022-11-26T17:36:25.868Z,101177.63
2022-11-26T17:39:12.212Z,101191.91
2022-11-26T17:41:56.095Z,101217.34
2022-11-26T17:44:39.911Z,101227.94
2022-11-26T17:47:27.321Z,101217.44
2022-11-26T17:50:18.819Z,101228.88
2022-11-26T17:53:02.637Z,101233.19
2022-11-26T17:55:46.454Z,101232.41
2022-11-26T17:58:30.270Z,101233.31
2022-11-26T18:01:15.014Z,101234.91
2022-11-26T18:04:00.181Z,101229.69
2022-11-26T18:06:53.758Z,101226.16
2022-11-26T18:09:38.130Z,101174.19
2022-11-26T18:12:25.667Z,101188.75
2022-11-26T18:15:10.157Z,101197.28
2022-11-26T18:17:56.293Z,101201.44
2022-11-26T18:20:44.330Z,101225.59
2022-11-26T18:23:28.192Z,101237.34
2022-11-26T18:26:17.495Z,101236.53
2022-11-26T18:29:02.560Z,101219.13
2022-11-26T18:31:46.347Z,101232.63
2022-11-26T18:34:30.167Z,101238.91
2022-11-26T18:37:15.375Z,101245.81
2022-11-26T18:39:59.482Z,101238.66
2022-11-26T18:42:43.461Z,101240.28
2022-11-26T18:45:27.143Z,101241.19
2022-11-26T18:48:10.887Z,101242.25
2022-11-26T18:50:58.121Z,101254.44
2022-11-26T18:53:43.728Z,101254.78
2022-11-26T18:56:27.466Z,101254.47
2022-11-26T18:59:11.575Z,101233.66
2022-11-26T19:01:55.304Z,101260.28
2022-11-26T19:04:39.550Z,101253.06
2022-11-26T19:07:23.334Z,101246.09
2022-11-26T19:10:09.754Z,101253.41
2022-11-26T19:12:53.560Z,101267.03
2022-11-26T19:15:42.160Z,101268.75
2022-11-26T19:18:25.956Z,101261.94
2022-11-26T19:21:18.625Z,101242.88
2022-11-26T19:24:04.092Z,101230.44
2022-11-26T19:26:49.555Z,101228.06
2022-11-26T19:29:33.529Z,101210.88
2022-11-26T19:32:17.358Z,101272.56
2022-11-26T19:35:05.593Z,101232.63
2022-11-26T19:37:50.254Z,101241.22
2022-11-26T19:40:34.225Z,101271.06
2022-11-26T19:43:19.664Z,101280.25
2022-11-26T19:46:05.328Z,101275.81
2022-11-26T19:48:51.682Z,101234.63
2022-11-26T19:51:35.761Z,101252.59
2022-11-26T19:54:19.756Z,101288.88
2022-11-26T19:57:03.832Z,101289.66
2022-11-26T19:59:49.338Z,101237.41
2022-11-26T20:02:33.491Z,101280.19
2022-11-26T20:05:17.803Z,101230.69
2022-11-26T20:08:01.710Z,101231.03
2022-11-26T20:10:49.887Z,101271.19
2022-11-26T20:13:34.863Z,101271.38
2022-11-26T20:16:22.085Z,101282.56
2022-11-26T20:19:06.118Z,101227.47
2022-11-26T20:21:51.242Z,101283.09
2022-11-26T20:24:35.336Z,101281.03
2022-11-26T20:27:19.275Z,101249.72
2022-11-26T20:30:03.230Z,101284.66
2022-11-26T20:32:49.238Z,101232.84
2022-11-26T20:35:33.102Z,101241.41
2022-11-26T20:38:17.011Z,101249.09
2022-11-26T20:41:01.059Z,101261.31
2022-11-26T20:43:45.239Z,101289.53
2022-11-26T20:46:49.133Z,101243.28
2022-11-26T20:49:37.805Z,101294.75
2022-11-26T20:52:25.105Z,101287.59
2022-11-26T20:55:10.410Z,101294.59
2022-11-26T20:57:54.545Z,101249.53
2022-11-26T21:00:42.594Z,101296.25
2022-11-26T21:03:28.085Z,101250.09
2022-11-26T21:06:14.285Z,101254.28
2022-11-26T21:09:00.078Z,101291.56
2022-11-26T21:11:44.137Z,101263.44
2022-11-26T21:14:29.719Z,101251.31
2022-11-26T21:17:14.643Z,101221.03
2022-11-26T21:19:58.615Z,101294.84
2022-11-26T21:22:44.965Z,101242.59
2022-11-26T21:25:28.901Z,101261.56
2022-11-26T21:28:14.983Z,101312.56
2022-11-26T21:30:59.049Z,101268.28
2022-11-26T21:33:43.005Z,101265.97
2022-11-26T21:36:27.561Z,101247.75
2022-11-26T21:39:16.453Z,101294.84
2022-11-26T21:42:00.382Z,101300.97
2022-11-26T21:44:44.341Z,101303.38
2022-11-26T21:47:28.269Z,101279.25
2022-11-26T21:50:12.567Z,101263.53
2022-11-26T21:52:56.401Z,101311.03
2022-11-26T21:55:41.548Z,101308.28
2022-11-26T21:58:25.410Z,101303.47
2022-11-26T22:01:13.628Z,101270.81
2022-11-26T22:04:00.524Z,101274.75
2022-11-26T22:06:45.258Z,101303.13
2022-11-26T22:09:29.108Z,101307.22
2022-11-26T22:12:14.285Z,101276.78
2022-11-26T22:14:57.967Z,101294.22
2022-11-26T22:17:41.834Z,101301.97
2022-11-26T22:20:25.529Z,101292.69
2022-11-26T22:23:09.413Z,101299.31
2022-11-26T22:25:53.109Z,101263.56
2022-11-26T22:28:39.311Z,101298.78
2022-11-26T22:31:26.832Z,101289.66
2022-11-26T22:34:12.874Z,101286.31
2022-11-26T22:36:56.648Z,101286.97
2022-11-26T22:39:40.542Z,101278.59
2022-11-26T22:42:24.566Z,101281.34
2022-11-26T22:45:11.649Z,101238.56
2022-11-26T22:47:55.496Z,101280.97
2022-11-26T22:50:39.282Z,101277.38
2022-11-26T22:53:23.783Z,101265.38
2022-11-26T22:56:08.251Z,101272.19
2022-11-26T22:58:52.067Z,101270.63
2022-11-26T23:01:38.800Z,101225.25
2022-11-26T23:04:22.513Z,101262.66
2022-11-26T23:07:06.297Z,101267.84
2022-11-26T23:09:50.266Z,101263.81
2022-11-26T23:12:34.123Z,101264.06
2022-11-26T23:15:17.977Z,101259.97
2022-11-26T23:18:03.249Z,101249.59
2022-11-26T23:20:47.272Z,101248.09
2022-11-26T23:23:31.237Z,101223.50
2022-11-26T23:26:21.821Z,101244.09
2022-11-26T23:29:09.528Z,101260.00
2022-11-26T23:31:53.474Z,101261.34
2022-11-26T23:34:38.614Z,101257.66
2022-11-26T23:37:22.296Z,101248.66
2022-11-26T23:40:07.775Z,101261.97
2022-11-26T23:42:51.502Z,101260.41
2022-11-26T23:45:35.270Z,101262.16
2022-11-26T23:48:19.084Z,101262.50
2022-11-26T23:51:07.425Z,101269.84
2022-11-26T23:53:52.093Z,101271.38
2022-11-26T23:56:36.315Z,101263.34
2022-11-26T23:59:20.278Z,101232.81
